sensor_id;sensor_type;location;lat;lon;timestamp;P1;durP1;ratioP1;P2;durP2;ratioP2
14774;SDS011;7479;47.042;15.160;2022-09-13T05:45:17;11.33;;;4.63;;
14774;SDS011;7479;47.042;15.160;2022-09-13T06:02:58;10.23;;;4.33;;
14774;SDS011;7479;47.042;15.160;2022-09-13T06:16:50;6.27;;;3.93;;
14774;SDS011;7479;47.042;15.160;2022-09-13T06:21:44;7.70;;;4.43;;
14774;SDS011;7479;47.042;15.160;2022-09-13T06:35:09;6.57;;;4.33;;
14774;SDS011;7479;47.042;15.160;2022-09-13T06:40:03;19.20;;;5.00;;
14774;SDS011;7479;47.042;15.160;2022-09-13T06:54:12;7.13;;;5.30;;
14774;SDS011;7479;47.042;15.160;2022-09-13T07:10:36;9.57;;;3.80;;
14774;SDS011;7479;47.042;15.160;2022-09-13T07:25:16;4.37;;;3.90;;
14774;SDS011;7479;47.042;15.160;2022-09-13T07:39:55;4.03;;;3.27;;
14774;SDS011;7479;47.042;15.160;2022-09-13T07:54:15;4.67;;;4.13;;
14774;SDS011;7479;47.042;15.160;2022-09-13T07:59:10;6.17;;;4.17;;
14774;SDS011;7479;47.042;15.160;2022-09-13T08:13:28;5.53;;;3.78;;
14774;SDS011;7479;47.042;15.160;2022-09-13T08:18:23;5.13;;;3.83;;
14774;SDS011;7479;47.042;15.160;2022-09-13T08:23:17;3.55;;;3.20;;
14774;SDS011;7479;47.042;15.160;2022-09-13T08:28:13;3.55;;;3.25;;
14774;SDS011;7479;47.042;15.160;2022-09-13T08:33:10;3.67;;;3.35;;
14774;SDS011;7479;47.042;15.160;2022-09-13T08:38:04;3.92;;;3.53;;
14774;SDS011;7479;47.042;15.160;2022-09-13T08:51:44;3.90;;;3.53;;
14774;SDS011;7479;47.042;15.160;2022-09-13T08:56:40;3.20;;;2.90;;
14774;SDS011;7479;47.042;15.160;2022-09-13T09:01:42;3.75;;;2.97;;
14774;SDS011;7479;47.042;15.160;2022-09-13T09:06:44;3.75;;;3.00;;
14774;SDS011;7479;47.042;15.160;2022-09-13T09:11:40;16.95;;;3.30;;
14774;SDS011;7479;47.042;15.160;2022-09-13T09:16:40;3.17;;;2.90;;
14774;SDS011;7479;47.042;15.160;2022-09-13T09:21:38;2.85;;;2.65;;
14774;SDS011;7479;47.042;15.160;2022-09-13T09:26:34;3.05;;;2.72;;
14774;SDS011;7479;47.042;15.160;2022-09-13T09:31:30;3.42;;;2.70;;
14774;SDS011;7479;47.042;15.160;2022-09-13T09:36:36;3.53;;;3.22;;
14774;SDS011;7479;47.042;15.160;2022-09-13T09:41:35;5.18;;;3.15;;
14774;SDS011;7479;47.042;15.160;2022-09-13T09:46:30;4.40;;;2.80;;
14774;SDS011;7479;47.042;15.160;2022-09-13T09:51:26;5.70;;;3.00;;
14774;SDS011;7479;47.042;15.160;2022-09-13T09:56:22;4.32;;;3.28;;
14774;SDS011;7479;47.042;15.160;2022-09-13T10:01:20;4.55;;;3.53;;
14774;SDS011;7479;47.042;15.160;2022-09-13T10:06:18;4.35;;;3.08;;
14774;SDS011;7479;47.042;15.160;2022-09-13T10:11:13;8.57;;;3.55;;
14774;SDS011;7479;47.042;15.160;2022-09-13T10:16:20;4.10;;;3.25;;
14774;SDS011;7479;47.042;15.160;2022-09-13T10:21:21;3.58;;;3.28;;
14774;SDS011;7479;47.042;15.160;2022-09-13T10:26:16;3.58;;;3.28;;
14774;SDS011;7479;47.042;15.160;2022-09-13T10:31:12;3.97;;;2.95;;
14774;SDS011;7479;47.042;15.160;2022-09-13T10:36:13;3.40;;;3.10;;
14774;SDS011;7479;47.042;15.160;2022-09-13T10:41:31;3.30;;;3.00;;
14774;SDS011;7479;47.042;15.160;2022-09-13T10:46:30;4.75;;;2.70;;
14774;SDS011;7479;47.042;15.160;2022-09-13T10:51:35;3.30;;;3.00;;
14774;SDS011;7479;47.042;15.160;2022-09-13T10:56:29;3.85;;;3.45;;
14774;SDS011;7479;47.042;15.160;2022-09-13T11:01:31;3.65;;;3.25;;
14774;SDS011;7479;47.042;15.160;2022-09-13T11:06:35;3.08;;;2.88;;
14774;SDS011;7479;47.042;15.160;2022-09-13T11:11:35;3.58;;;3.28;;
14774;SDS011;7479;47.042;15.160;2022-09-13T11:16:36;3.38;;;3.08;;
14774;SDS011;7479;47.042;15.160;2022-09-13T11:27:00;4.22;;;3.47;;
14774;SDS011;7479;47.042;15.160;2022-09-13T11:32:00;3.22;;;3.03;;
14774;SDS011;7479;47.042;15.160;2022-09-13T11:42:21;4.35;;;3.30;;
14774;SDS011;7479;47.042;15.160;2022-09-13T11:47:28;4.07;;;3.42;;
14774;SDS011;7479;47.042;15.160;2022-09-13T11:52:34;3.45;;;3.15;;
14774;SDS011;7479;47.042;15.160;2022-09-13T11:57:37;9.02;;;3.53;;
14774;SDS011;7479;47.042;15.160;2022-09-13T12:02:36;3.47;;;3.17;;
14774;SDS011;7479;47.042;15.160;2022-09-13T12:07:36;3.60;;;3.30;;
14774;SDS011;7479;47.042;15.160;2022-09-13T12:12:34;3.50;;;3.17;;
14774;SDS011;7479;47.042;15.160;2022-09-13T12:17:29;3.50;;;2.80;;
14774;SDS011;7479;47.042;15.160;2022-09-13T12:22:29;4.85;;;2.80;;
14774;SDS011;7479;47.042;15.160;2022-09-13T12:27:30;5.28;;;3.05;;
14774;SDS011;7479;47.042;15.160;2022-09-13T12:32:30;3.03;;;2.83;;
14774;SDS011;7479;47.042;15.160;2022-09-13T12:43:17;3.40;;;3.10;;
14774;SDS011;7479;47.042;15.160;2022-09-13T12:48:35;4.32;;;3.30;;
14774;SDS011;7479;47.042;15.160;2022-09-13T12:54:18;3.97;;;3.13;;
14774;SDS011;7479;47.042;15.160;2022-09-13T12:59:40;3.55;;;3.25;;
14774;SDS011;7479;47.042;15.160;2022-09-13T13:04:51;3.10;;;2.80;;
14774;SDS011;7479;47.042;15.160;2022-09-13T13:09:48;3.50;;;3.10;;
14774;SDS011;7479;47.042;15.160;2022-09-13T13:14:48;3.28;;;2.97;;
14774;SDS011;7479;47.042;15.160;2022-09-13T13:19:44;4.18;;;3.25;;
14774;SDS011;7479;47.042;15.160;2022-09-13T13:24:41;5.15;;;3.08;;
14774;SDS011;7479;47.042;15.160;2022-09-13T13:29:38;5.00;;;3.58;;
14774;SDS011;7479;47.042;15.160;2022-09-13T13:34:38;4.10;;;3.20;;
14774;SDS011;7479;47.042;15.160;2022-09-13T13:39:35;4.82;;;3.30;;
14774;SDS011;7479;47.042;15.160;2022-09-13T13:50:11;4.00;;;3.17;;
14774;SDS011;7479;47.042;15.160;2022-09-13T14:00:30;5.95;;;3.50;;
14774;SDS011;7479;47.042;15.160;2022-09-13T14:05:29;6.88;;;3.08;;
14774;SDS011;7479;47.042;15.160;2022-09-13T14:10:30;4.50;;;3.40;;
14774;SDS011;7479;47.042;15.160;2022-09-13T14:15:38;3.83;;;2.88;;
14774;SDS011;7479;47.042;15.160;2022-09-13T14:25:53;4.40;;;3.15;;
14774;SDS011;7479;47.042;15.160;2022-09-13T14:30:51;4.30;;;2.88;;
14774;SDS011;7479;47.042;15.160;2022-09-13T14:35:46;3.72;;;2.92;;
14774;SDS011;7479;47.042;15.160;2022-09-13T14:40:49;3.17;;;2.90;;
14774;SDS011;7479;47.042;15.160;2022-09-13T14:45:45;3.17;;;2.83;;
14774;SDS011;7479;47.042;15.160;2022-09-13T14:50:41;4.43;;;2.88;;
14774;SDS011;7479;47.042;15.160;2022-09-13T14:55:42;3.60;;;2.63;;
14774;SDS011;7479;47.042;15.160;2022-09-13T15:00:45;2.95;;;2.70;;
14774;SDS011;7479;47.042;15.160;2022-09-13T15:05:48;3.65;;;2.60;;
14774;SDS011;7479;47.042;15.160;2022-09-13T15:10:43;4.13;;;3.83;;
14774;SDS011;7479;47.042;15.160;2022-09-13T15:15:37;6.05;;;3.20;;
14774;SDS011;7479;47.042;15.160;2022-09-13T15:20:44;5.32;;;3.28;;
14774;SDS011;7479;47.042;15.160;2022-09-13T15:25:41;5.53;;;3.55;;
14774;SDS011;7479;47.042;15.160;2022-09-13T15:30:42;3.13;;;2.83;;
14774;SDS011;7479;47.042;15.160;2022-09-13T15:35:37;3.22;;;2.88;;
14774;SDS011;7479;47.042;15.160;2022-09-13T15:40:41;3.97;;;3.05;;
14774;SDS011;7479;47.042;15.160;2022-09-13T15:45:36;3.08;;;2.70;;
14774;SDS011;7479;47.042;15.160;2022-09-13T15:50:29;3.58;;;2.92;;
14774;SDS011;7479;47.042;15.160;2022-09-13T15:55:27;4.40;;;3.45;;
14774;SDS011;7479;47.042;15.160;2022-09-13T16:00:24;2.97;;;2.60;;
14774;SDS011;7479;47.042;15.160;2022-09-13T16:05:19;4.28;;;2.80;;
14774;SDS011;7479;47.042;15.160;2022-09-13T16:10:13;3.95;;;2.95;;
14774;SDS011;7479;47.042;15.160;2022-09-13T16:15:08;3.13;;;2.67;;
14774;SDS011;7479;47.042;15.160;2022-09-13T16:20:05;3.47;;;3.03;;
14774;SDS011;7479;47.042;15.160;2022-09-13T16:25:00;3.22;;;2.70;;
14774;SDS011;7479;47.042;15.160;2022-09-13T16:29:53;3.13;;;2.92;;
14774;SDS011;7479;47.042;15.160;2022-09-13T16:34:47;3.03;;;2.70;;
14774;SDS011;7479;47.042;15.160;2022-09-13T16:39:44;4.35;;;2.90;;
14774;SDS011;7479;47.042;15.160;2022-09-13T16:44:38;5.40;;;4.90;;
14774;SDS011;7479;47.042;15.160;2022-09-13T16:49:31;11.32;;;8.93;;
14774;SDS011;7479;47.042;15.160;2022-09-13T16:54:25;12.38;;;6.28;;
14774;SDS011;7479;47.042;15.160;2022-09-13T16:59:22;15.32;;;4.72;;
14774;SDS011;7479;47.042;15.160;2022-09-13T17:04:15;7.43;;;3.42;;
14774;SDS011;7479;47.042;15.160;2022-09-13T17:09:09;11.25;;;3.88;;
14774;SDS011;7479;47.042;15.160;2022-09-13T17:14:03;4.95;;;3.22;;
14774;SDS011;7479;47.042;15.160;2022-09-13T17:19:02;6.82;;;3.70;;
14774;SDS011;7479;47.042;15.160;2022-09-13T17:23:57;8.32;;;6.65;;
14774;SDS011;7479;47.042;15.160;2022-09-13T17:28:51;11.15;;;8.30;;
14774;SDS011;7479;47.042;15.160;2022-09-13T17:33:45;11.98;;;9.93;;
14774;SDS011;7479;47.042;15.160;2022-09-13T17:38:41;6.00;;;5.20;;
14774;SDS011;7479;47.042;15.160;2022-09-13T17:43:34;7.80;;;4.72;;
14774;SDS011;7479;47.042;15.160;2022-09-13T17:48:29;4.93;;;4.25;;
14774;SDS011;7479;47.042;15.160;2022-09-13T17:53:22;5.47;;;4.55;;
14774;SDS011;7479;47.042;15.160;2022-09-13T17:58:19;7.53;;;4.30;;
14774;SDS011;7479;47.042;15.160;2022-09-13T18:03:12;6.43;;;3.97;;
14774;SDS011;7479;47.042;15.160;2022-09-13T18:08:07;5.45;;;4.10;;
14774;SDS011;7479;47.042;15.160;2022-09-13T18:13:00;5.80;;;4.22;;
14774;SDS011;7479;47.042;15.160;2022-09-13T18:17:56;5.60;;;4.63;;
14774;SDS011;7479;47.042;15.160;2022-09-13T18:22:49;5.78;;;4.20;;
14774;SDS011;7479;47.042;15.160;2022-09-13T18:27:43;8.00;;;4.80;;
14774;SDS011;7479;47.042;15.160;2022-09-13T18:32:37;6.93;;;4.88;;
14774;SDS011;7479;47.042;15.160;2022-09-13T18:37:33;7.13;;;4.53;;
14774;SDS011;7479;47.042;15.160;2022-09-13T18:42:27;8.95;;;4.82;;
14774;SDS011;7479;47.042;15.160;2022-09-13T18:47:24;9.13;;;4.72;;
14774;SDS011;7479;47.042;15.160;2022-09-13T18:52:19;12.35;;;4.72;;
14774;SDS011;7479;47.042;15.160;2022-09-13T18:57:14;10.63;;;4.90;;
14774;SDS011;7479;47.042;15.160;2022-09-13T19:02:08;6.82;;;5.47;;
14774;SDS011;7479;47.042;15.160;2022-09-13T19:07:03;10.20;;;5.10;;
14774;SDS011;7479;47.042;15.160;2022-09-13T19:11:58;8.43;;;5.47;;
14774;SDS011;7479;47.042;15.160;2022-09-13T19:16:55;9.13;;;6.18;;
14774;SDS011;7479;47.042;15.160;2022-09-13T19:21:51;6.65;;;5.85;;
14774;SDS011;7479;47.042;15.160;2022-09-13T19:26:45;6.40;;;5.57;;
14774;SDS011;7479;47.042;15.160;2022-09-13T19:31:42;5.60;;;4.80;;
14774;SDS011;7479;47.042;15.160;2022-09-13T19:36:40;9.98;;;4.88;;
14774;SDS011;7479;47.042;15.160;2022-09-13T19:41:35;6.03;;;4.65;;
14774;SDS011;7479;47.042;15.160;2022-09-13T19:46:30;8.98;;;5.25;;
